Airfield :
LOGIN :

Register | Disclaimer

   EN    FR    IT 

 










Legend :    VFR   Marginal VFR   IFR   Intensive IFR   Very Intensive IFR
Visi :
Ceiling :
>= 8 km
>= 3000ft
5 to 8 km
1000 to 3000 ft
1500m to 5 km
500 to 1000 ft
800 to 1500m
200 to 500 ft
< 800m
< 200 ft
Symbols :   Thunderstorms  Fog  Heavy snow  Heavy precipitations  Wind > 20 kt
SIGMETs :     Misc.  Thunderstorms  Icing  Turbulence  Mountain Waves  Volcanic Ashes






- Airport Elevation : 15 ft
- IATA code : FCO


LIRF - Roma Leonardo da Vinci Fiumicino

CURRENT METAR :
  • 250750Z 18006KT 140V220 9999 SCT030 24/15 Q1012 NOSIG

EXPIRED METARs :
  • 250720Z 17006KT 140V220 9999 SCT030 24/16 Q1012 NOSIG
  • 250650Z 18006KT 140V210 9999 SCT030 24/16 Q1012 NOSIG
  • 250620Z 12006KT 060V160 9999 FEW025 23/17 Q1012 NOSIG
  • 250550Z 09005KT 060V120 9999 FEW030 22/17 Q1012 NOSIG
  • 250520Z 07006KT 9999 FEW020 19/16 Q1012 NOSIG
  • 250450Z 09007KT CAVOK 19/16 Q1012 NOSIG
  • 250420Z 08006KT CAVOK 17/16 Q1012 NOSIG
  • 250350Z 08006KT 9999 FEW040 17/16 Q1012 NOSIG
  • 250320Z 09005KT 9999 SCT035 18/16 Q1011 NOSIG

TAF TAF LIRF
Valid from the 25 at 06:00 until the 26 at 12:00 UTC


250500Z 2506/2612 VRB05KT 9999 SCT025
BECMG 2508/2510 18014KT
BECMG 2517/2519 VRB05KT



MET'MAP, your aeronautical weather chart ! - Copyright ORBIFLY December 2007 - Disclaimer

ORBIFLY MET'MAP TEAM :

Programming & Development : Alexandra Zaïnal
Original concept : Baudouin d'Aumeries
Technical & hardware support : Manuel Goepfert
Assistance : Marc-Olivier Méhu




SOURCES & CREDITS :

   NOAA